createdAt,value
2023-05-12T00:01:43.557Z,101049.00
2023-05-12T00:04:10.583Z,101050.00
2023-05-12T00:06:38.261Z,101054.00
2023-05-12T00:09:06.168Z,101040.00
2023-05-12T00:11:33.027Z,101060.00
2023-05-12T00:13:59.860Z,101051.00
2023-05-12T00:16:26.965Z,101052.00
2023-05-12T00:18:53.995Z,101051.00
2023-05-12T00:21:20.953Z,101044.00
2023-05-12T00:23:47.840Z,101052.00
2023-05-12T00:26:14.744Z,101056.00
2023-05-12T00:28:41.534Z,101056.00
2023-05-12T00:31:08.662Z,101050.00
2023-05-12T00:33:35.639Z,101051.00
2023-05-12T00:36:04.020Z,101048.00
2023-05-12T00:38:30.850Z,101047.00
2023-05-12T00:40:57.688Z,101047.00
2023-05-12T00:43:24.539Z,101051.00
2023-05-12T00:45:51.533Z,101058.00
2023-05-12T00:48:19.496Z,101057.00
2023-05-12T00:50:46.359Z,101061.00
2023-05-12T00:53:13.811Z,101050.00
2023-05-12T00:55:41.491Z,101058.00
2023-05-12T00:58:08.476Z,101050.00
2023-05-12T01:00:35.403Z,101050.00
2023-05-12T01:03:02.761Z,101056.00
2023-05-12T01:05:41.763Z,101062.00
2023-05-12T01:08:11.472Z,101071.00
2023-05-12T01:10:44.800Z,101072.00
2023-05-12T01:13:11.652Z,101069.00
2023-05-12T01:15:48.290Z,101062.00
2023-05-12T01:18:21.635Z,101075.00
2023-05-12T01:20:49.973Z,101074.00
2023-05-12T01:23:20.117Z,101075.00
2023-05-12T01:25:50.324Z,101073.00
2023-05-12T01:28:18.391Z,101069.00
2023-05-12T01:30:45.971Z,101068.00
2023-05-12T01:33:13.425Z,101085.00
2023-05-12T01:35:40.355Z,101087.00
2023-05-12T01:38:07.153Z,101083.00
2023-05-12T01:40:34.115Z,101087.00
2023-05-12T01:43:00.973Z,101095.00
2023-05-12T01:45:27.770Z,101091.00
2023-05-12T01:47:54.586Z,101090.00
2023-05-12T01:50:22.170Z,101092.00
2023-05-12T01:52:49.209Z,101085.00
2023-05-12T01:55:16.282Z,101082.00
2023-05-12T01:57:43.152Z,101093.00
2023-05-12T02:00:10.978Z,101095.00
2023-05-12T02:02:38.527Z,101095.00
2023-05-12T02:05:07.226Z,101100.00
2023-05-12T02:07:34.285Z,101103.00
2023-05-12T02:10:01.149Z,101088.00
2023-05-12T02:12:28.000Z,101095.00
2023-05-12T02:14:57.454Z,101089.00
2023-05-12T02:17:25.174Z,101091.00
2023-05-12T02:19:52.329Z,101106.00
2023-05-12T02:22:19.156Z,101103.00
2023-05-12T02:24:46.103Z,101105.00
2023-05-12T02:27:12.904Z,101104.00
2023-05-12T02:29:39.781Z,101107.00
2023-05-12T02:32:06.826Z,101110.00
2023-05-12T02:34:33.622Z,101113.00
2023-05-12T02:37:00.698Z,101117.00
2023-05-12T02:39:27.519Z,101110.00
2023-05-12T02:41:54.290Z,101109.00
2023-05-12T02:44:22.380Z,101108.00
2023-05-12T02:46:49.242Z,101106.00
2023-05-12T02:49:16.218Z,101117.00
2023-05-12T02:51:43.078Z,101116.00
2023-05-12T02:54:09.978Z,101118.00
2023-05-12T02:56:36.872Z,101122.00
2023-05-12T02:59:03.697Z,101115.00
2023-05-12T03:01:30.610Z,101112.00
2023-05-12T03:03:57.501Z,101118.00
2023-05-12T03:06:24.368Z,101112.00
2023-05-12T03:08:51.246Z,101115.00
2023-05-12T03:11:18.154Z,101110.00
2023-05-12T03:13:44.998Z,101114.00
2023-05-12T03:16:12.478Z,101108.00
2023-05-12T03:18:39.333Z,101105.00
2023-05-12T03:21:06.358Z,101115.00
2023-05-12T03:23:33.232Z,101117.00
2023-05-12T03:26:00.021Z,101112.00
2023-05-12T03:28:27.209Z,101109.00
2023-05-12T03:30:54.288Z,101117.00
2023-05-12T03:33:21.094Z,101114.00
2023-05-12T03:35:47.935Z,101120.00
2023-05-12T03:38:14.741Z,101113.00
2023-05-12T03:40:41.546Z,101122.00
2023-05-12T03:43:08.353Z,101121.00
2023-05-12T03:45:35.516Z,101123.00
2023-05-12T03:48:02.337Z,101131.00
2023-05-12T03:50:29.195Z,101123.00
2023-05-12T03:52:56.275Z,101131.00
2023-05-12T03:55:23.149Z,101132.00
2023-05-12T03:57:50.226Z,101135.00
2023-05-12T04:00:18.175Z,101137.00
2023-05-12T04:02:46.319Z,101141.00
2023-05-12T04:05:13.554Z,101143.00
2023-05-12T04:07:40.373Z,101143.00
2023-05-12T04:10:08.319Z,101141.00
2023-05-12T04:12:35.227Z,101145.00
2023-05-12T04:15:02.967Z,101146.00
2023-05-12T04:17:29.811Z,101144.00
2023-05-12T04:19:56.675Z,101148.00
2023-05-12T04:22:25.576Z,101144.00
2023-05-12T04:24:52.935Z,101143.00
2023-05-12T04:27:19.848Z,101148.00
2023-05-12T04:29:46.735Z,101147.00
2023-05-12T04:32:13.699Z,101151.00
2023-05-12T04:34:40.631Z,101142.00
2023-05-12T04:37:07.453Z,101152.00
2023-05-12T04:39:34.277Z,101152.00
2023-05-12T04:42:02.158Z,101155.00
2023-05-12T04:44:29.055Z,101151.00
2023-05-12T04:46:56.523Z,101161.00
2023-05-12T04:49:26.598Z,101150.00
2023-05-12T04:51:53.475Z,101159.00
2023-05-12T04:54:20.384Z,101162.00
2023-05-12T04:56:47.434Z,101168.00
2023-05-12T04:59:16.829Z,101164.00
2023-05-12T05:01:48.896Z,101170.00
2023-05-12T05:04:15.916Z,101166.00
2023-05-12T05:06:42.798Z,101167.00
2023-05-12T05:09:09.806Z,101181.00
2023-05-12T05:11:38.965Z,101165.00
2023-05-12T05:14:05.812Z,101173.00
2023-05-12T05:16:32.712Z,101100.00
2023-05-12T05:18:59.710Z,101184.00
2023-05-12T05:21:26.620Z,101172.00
2023-05-12T05:23:53.465Z,101179.00
2023-05-12T05:26:22.168Z,101178.00
2023-05-12T05:28:49.050Z,101184.00
2023-05-12T05:31:17.297Z,101188.00
2023-05-12T05:33:44.856Z,101180.00
2023-05-12T05:36:12.414Z,101183.00
2023-05-12T05:38:39.347Z,101184.00
2023-05-12T05:41:06.695Z,101184.00
2023-05-12T05:43:33.818Z,101193.00
2023-05-12T05:46:00.787Z,101191.00
2023-05-12T05:48:27.751Z,101185.00
2023-05-12T05:50:55.137Z,101194.00
2023-05-12T05:53:23.418Z,101200.00
2023-05-12T05:55:50.396Z,101195.00
2023-05-12T05:58:17.467Z,101193.00
2023-05-12T06:00:44.566Z,101179.00
2023-05-12T06:03:11.745Z,101204.00
2023-05-12T06:05:38.977Z,101199.00
2023-05-12T06:08:08.898Z,101204.00
2023-05-12T06:10:35.754Z,101205.00
2023-05-12T06:13:04.800Z,101204.00
2023-05-12T06:15:32.795Z,101180.00
2023-05-12T06:18:00.530Z,101217.00
2023-05-12T06:20:29.674Z,101224.00
2023-05-12T06:22:56.472Z,101228.00
2023-05-12T06:25:23.378Z,101225.00
2023-05-12T06:27:53.367Z,101232.00
2023-05-12T06:30:20.671Z,101233.00
2023-05-12T06:32:47.656Z,101231.00
2023-05-12T06:35:17.906Z,101231.00
2023-05-12T06:37:49.382Z,101239.00
2023-05-12T06:40:17.165Z,101236.00
2023-05-12T06:42:44.690Z,101238.00
2023-05-12T06:45:13.044Z,101238.00
2023-05-12T06:47:40.343Z,101238.00
2023-05-12T06:50:08.740Z,101234.00
2023-05-12T06:52:36.021Z,101240.00
2023-05-12T06:55:03.124Z,101243.00
2023-05-12T06:57:30.011Z,101246.00
2023-05-12T06:59:56.880Z,101248.00
2023-05-12T07:02:23.779Z,101244.00
2023-05-12T07:04:50.657Z,101244.00
2023-05-12T07:07:17.493Z,101237.00
2023-05-12T07:09:46.060Z,101242.00
2023-05-12T07:12:13.020Z,101246.00
2023-05-12T07:14:40.102Z,101245.00
2023-05-12T07:17:07.028Z,101244.00
2023-05-12T07:19:35.441Z,101245.00
2023-05-12T07:22:02.670Z,101247.00
2023-05-12T07:24:29.596Z,101247.00
2023-05-12T07:26:56.708Z,101245.00
2023-05-12T07:29:23.640Z,101245.00
2023-05-12T07:31:50.836Z,101241.00
2023-05-12T07:34:17.883Z,101236.00
2023-05-12T07:36:44.877Z,101246.00
2023-05-12T07:39:12.847Z,101242.00
2023-05-12T07:41:40.003Z,101238.00
2023-05-12T07:44:07.397Z,101248.00
2023-05-12T07:46:34.324Z,101249.00
2023-05-12T07:49:01.252Z,101255.00
2023-05-12T07:51:29.115Z,101247.00
2023-05-12T07:53:57.951Z,101242.00
2023-05-12T07:56:24.977Z,101245.00
2023-05-12T07:58:51.805Z,101250.00
2023-05-12T08:01:18.841Z,101248.00
2023-05-12T08:03:45.876Z,101242.00
2023-05-12T08:06:12.877Z,101240.00
2023-05-12T08:08:39.708Z,101239.00
2023-05-12T08:11:06.616Z,101239.00
2023-05-12T08:13:33.929Z,101243.00
2023-05-12T08:16:00.752Z,101252.00
2023-05-12T08:18:27.893Z,101248.00
2023-05-12T08:20:55.322Z,101234.00
2023-05-12T08:23:22.170Z,101239.00
2023-05-12T08:25:49.159Z,101244.00
2023-05-12T08:28:16.064Z,101254.00
2023-05-12T08:30:45.080Z,101244.00
2023-05-12T08:33:12.940Z,101246.00
2023-05-12T08:35:40.271Z,101250.00
2023-05-12T08:38:07.401Z,101239.00
2023-05-12T08:40:49.994Z,101245.00
2023-05-12T08:43:44.007Z,101241.00
2023-05-12T08:46:13.136Z,101239.00
2023-05-12T08:48:41.406Z,101247.00
2023-05-12T08:51:11.793Z,101243.00
2023-05-12T08:53:41.533Z,101243.00
2023-05-12T08:58:42.824Z,101249.00
2023-05-12T09:01:12.676Z,101249.00
2023-05-12T09:03:39.761Z,101246.00
2023-05-12T09:06:08.607Z,101252.00
2023-05-12T09:08:37.459Z,101252.00
2023-05-12T09:11:08.143Z,101250.00
2023-05-12T09:14:06.437Z,101251.00
2023-05-12T09:16:44.079Z,101249.00
2023-05-12T09:19:11.452Z,101235.00
2023-05-12T09:21:41.321Z,101238.00
2023-05-12T09:24:08.966Z,101254.00
2023-05-12T09:26:49.091Z,101246.00
2023-05-12T09:29:27.659Z,101240.00
2023-05-12T09:31:59.538Z,101239.00
2023-05-12T09:34:41.236Z,101242.00
2023-05-12T09:37:08.561Z,101236.00
2023-05-12T09:39:37.036Z,101233.00
2023-05-12T09:42:04.999Z,101239.00
2023-05-12T09:44:33.340Z,101240.00
2023-05-12T09:47:08.103Z,101245.00
2023-05-12T09:49:34.958Z,101222.00
2023-05-12T09:52:04.931Z,101230.00
2023-05-12T09:54:34.321Z,101232.00
2023-05-12T09:57:07.511Z,101234.00
2023-05-12T09:59:36.432Z,101233.00
2023-05-12T10:02:08.740Z,101227.00
2023-05-12T10:05:01.068Z,101240.00
2023-05-12T10:07:29.284Z,101228.00
2023-05-12T10:10:01.001Z,101228.00
2023-05-12T10:12:28.649Z,101225.00
2023-05-12T10:14:56.638Z,101222.00
2023-05-12T10:17:26.421Z,101208.00
2023-05-12T10:19:55.998Z,101210.00
2023-05-12T10:22:24.457Z,101226.00
2023-05-12T10:24:54.887Z,101223.00
2023-05-12T10:27:24.715Z,101218.00
2023-05-12T10:29:53.685Z,101218.00
2023-05-12T10:32:20.780Z,101221.00
2023-05-12T10:34:48.230Z,101215.00
2023-05-12T10:37:15.126Z,101217.00
2023-05-12T10:39:51.469Z,101215.00
2023-05-12T10:42:26.360Z,101202.00
2023-05-12T10:44:56.576Z,101204.00
2023-05-12T10:47:36.772Z,101200.00
2023-05-12T10:50:04.198Z,101207.00
2023-05-12T10:52:31.065Z,101212.00
2023-05-12T10:55:15.328Z,101213.00
2023-05-12T10:57:51.991Z,101206.00
2023-05-12T11:00:26.794Z,101212.00
2023-05-12T11:02:54.937Z,101209.00
2023-05-12T11:05:35.123Z,101209.00
2023-05-12T11:08:02.677Z,101206.00
2023-05-12T11:10:31.097Z,101214.00
2023-05-12T11:12:59.158Z,101204.00
2023-05-12T11:15:27.438Z,101195.00
2023-05-12T11:17:54.319Z,101195.00
2023-05-12T11:20:28.125Z,101201.00
2023-05-12T11:22:56.585Z,101210.00
2023-05-12T11:25:26.672Z,101201.00
2023-05-12T11:27:53.705Z,101202.00
2023-05-12T11:30:21.341Z,101204.00
2023-05-12T11:32:48.858Z,101201.00
2023-05-12T11:35:20.109Z,101213.00
2023-05-12T11:37:47.200Z,101208.00
2023-05-12T11:40:22.787Z,101206.00
2023-05-12T11:42:56.155Z,101213.00
2023-05-12T11:45:29.823Z,101199.00
2023-05-12T11:48:12.513Z,101198.00
2023-05-12T11:50:43.485Z,101196.00
2023-05-12T11:53:14.756Z,101198.00
2023-05-12T11:55:53.694Z,101202.00
2023-05-12T11:58:26.825Z,101198.00
2023-05-12T12:00:54.865Z,101216.00
2023-05-12T12:03:21.881Z,101204.00
2023-05-12T12:06:03.755Z,101230.00
2023-05-12T12:08:30.990Z,101211.00
2023-05-12T12:10:57.985Z,101191.00
2023-05-12T12:13:26.189Z,101201.00
2023-05-12T12:15:53.345Z,101216.00
2023-05-12T12:18:21.099Z,101209.00
2023-05-12T12:20:48.420Z,101207.00
2023-05-12T12:23:15.433Z,101209.00
2023-05-12T12:25:43.513Z,101213.00
2023-05-12T12:28:10.361Z,101204.00
2023-05-12T12:30:37.480Z,101213.00
2023-05-12T12:33:04.410Z,101199.00
2023-05-12T12:35:31.281Z,101196.00
2023-05-12T12:37:58.649Z,101201.00
2023-05-12T12:40:25.524Z,101207.00
2023-05-12T12:42:52.404Z,101198.00
2023-05-12T12:45:20.513Z,101199.00
2023-05-12T12:47:47.683Z,101201.00
2023-05-12T12:50:14.936Z,101195.00
2023-05-12T12:52:41.886Z,101193.00
2023-05-12T12:55:10.013Z,101189.00
2023-05-12T12:57:37.051Z,101190.00
2023-05-12T13:00:05.597Z,101192.00
2023-05-12T13:02:33.612Z,101188.00
2023-05-12T13:05:04.070Z,101184.00
2023-05-12T13:07:31.087Z,101178.00
2023-05-12T13:09:57.953Z,101180.00
2023-05-12T13:12:25.532Z,101177.00
2023-05-12T13:14:52.930Z,101189.00
2023-05-12T13:17:20.480Z,101183.00
2023-05-12T13:19:47.385Z,101168.00
2023-05-12T13:22:14.418Z,101172.00
2023-05-12T13:24:41.338Z,101180.00
2023-05-12T13:27:09.343Z,101177.00
2023-05-12T13:29:36.559Z,101175.00
2023-05-12T13:32:03.815Z,101166.00
2023-05-12T13:34:30.650Z,101164.00
2023-05-12T13:36:57.516Z,101180.00
2023-05-12T13:39:24.371Z,101170.00
2023-05-12T13:41:51.249Z,101168.00
2023-05-12T13:44:19.340Z,101171.00
2023-05-12T13:46:46.287Z,101166.00
2023-05-12T13:49:13.652Z,101162.00
2023-05-12T13:51:40.614Z,101155.00
2023-05-12T13:54:07.587Z,101149.00
2023-05-12T13:56:34.661Z,101156.00
2023-05-12T13:59:01.573Z,101160.00
2023-05-12T14:01:28.469Z,101160.00
2023-05-12T14:03:55.390Z,101164.00
2023-05-12T14:06:22.303Z,101152.00
2023-05-12T14:08:49.396Z,101147.00
2023-05-12T14:11:16.953Z,101153.00
2023-05-12T14:13:44.000Z,101150.00
2023-05-12T14:16:13.688Z,101138.00
2023-05-12T14:18:43.171Z,101147.00
2023-05-12T14:21:10.672Z,101142.00
2023-05-12T14:23:37.795Z,101154.00
2023-05-12T14:26:05.018Z,101152.00
2023-05-12T14:28:31.971Z,101149.00
2023-05-12T14:30:59.034Z,101149.00
2023-05-12T14:33:25.975Z,101141.00
2023-05-12T14:36:03.283Z,101139.00
2023-05-12T14:38:33.218Z,101151.00
2023-05-12T14:41:00.206Z,101156.00
2023-05-12T14:43:27.025Z,101150.00
2023-05-12T14:45:56.455Z,101153.00
2023-05-12T14:48:26.091Z,101151.00
2023-05-12T14:50:57.213Z,101152.00
2023-05-12T14:53:24.540Z,101136.00
2023-05-12T14:55:52.134Z,101140.00
2023-05-12T14:58:21.523Z,101144.00
2023-05-12T15:00:50.944Z,101153.00
2023-05-12T15:03:18.595Z,101147.00
2023-05-12T15:06:04.934Z,101153.00
2023-05-12T15:08:33.597Z,101149.00
2023-05-12T15:11:00.516Z,101144.00
2023-05-12T15:13:27.378Z,101143.00
2023-05-12T15:15:56.478Z,101151.00
2023-05-12T15:18:23.847Z,101144.00
2023-05-12T15:20:51.498Z,101139.00
2023-05-12T15:23:18.334Z,101139.00
2023-05-12T15:25:45.238Z,101129.00
2023-05-12T15:28:12.087Z,101132.00
2023-05-12T15:30:39.037Z,101133.00
2023-05-12T15:33:06.551Z,101140.00
2023-05-12T15:35:34.043Z,101134.00
2023-05-12T15:38:01.013Z,101142.00
2023-05-12T15:40:30.199Z,101135.00
2023-05-12T15:42:57.376Z,101144.00
2023-05-12T15:45:24.258Z,101139.00
2023-05-12T15:47:51.096Z,101130.00
2023-05-12T15:50:22.334Z,101130.00
2023-05-12T15:52:49.604Z,101142.00
2023-05-12T15:55:16.841Z,101146.00
2023-05-12T15:57:43.874Z,101144.00
2023-05-12T16:00:12.164Z,101142.00
2023-05-12T16:02:39.197Z,101135.00
2023-05-12T16:05:07.165Z,101139.00
2023-05-12T16:07:34.734Z,101132.00
2023-05-12T16:10:01.743Z,101128.00
2023-05-12T16:12:30.088Z,101130.00
2023-05-12T16:14:56.970Z,101135.00
2023-05-12T16:17:23.924Z,101131.00
2023-05-12T16:19:53.065Z,101133.00
2023-05-12T16:22:19.991Z,101136.00
2023-05-12T16:24:47.222Z,101134.00
2023-05-12T16:27:14.151Z,101139.00
2023-05-12T16:29:45.308Z,101130.00
2023-05-12T16:32:12.210Z,101130.00
2023-05-12T16:34:39.046Z,101140.00
2023-05-12T16:37:05.845Z,101145.00
2023-05-12T16:39:34.087Z,101145.00
2023-05-12T16:42:00.992Z,101137.00
2023-05-12T16:44:27.874Z,101132.00
2023-05-12T16:46:54.709Z,101135.00
2023-05-12T16:49:21.576Z,101129.00
2023-05-12T16:51:48.425Z,101133.00
2023-05-12T16:54:15.317Z,101142.00
2023-05-12T16:56:42.150Z,101126.00
2023-05-12T16:59:08.981Z,101137.00
2023-05-12T17:01:36.206Z,101133.00
2023-05-12T17:04:03.285Z,101137.00
2023-05-12T17:06:30.835Z,101132.00
2023-05-12T17:08:57.721Z,101141.00
2023-05-12T17:11:24.708Z,101133.00
2023-05-12T17:13:51.518Z,101137.00
2023-05-12T17:16:18.465Z,101135.00
2023-05-12T17:21:15.348Z,101142.00
2023-05-12T17:23:42.234Z,101143.00
2023-05-12T17:26:09.057Z,101140.00
2023-05-12T17:28:36.143Z,101143.00
2023-05-12T17:31:03.077Z,101144.00
2023-05-12T17:33:29.970Z,101144.00
2023-05-12T17:36:10.851Z,101142.00
2023-05-12T17:38:39.979Z,101154.00
2023-05-12T17:41:06.865Z,101150.00
2023-05-12T17:43:33.867Z,101156.00
2023-05-12T17:46:08.324Z,101154.00
2023-05-12T17:48:35.541Z,101127.00
2023-05-12T17:51:03.330Z,101164.00
2023-05-12T17:53:32.596Z,101157.00
2023-05-12T17:56:00.540Z,101156.00
2023-05-12T17:58:27.377Z,101153.00
2023-05-12T18:00:54.376Z,101155.00
2023-05-12T18:03:24.269Z,101157.00
2023-05-12T18:05:53.410Z,101158.00
2023-05-12T18:08:20.760Z,101158.00
2023-05-12T18:10:47.804Z,101159.00
2023-05-12T18:13:15.542Z,101158.00
2023-05-12T18:15:42.844Z,101170.00
2023-05-12T18:18:10.678Z,101167.00
2023-05-12T18:20:38.193Z,101178.00
2023-05-12T18:23:05.307Z,101172.00
2023-05-12T18:25:32.217Z,101172.00
2023-05-12T18:27:59.119Z,101182.00
2023-05-12T18:30:25.952Z,101184.00
2023-05-12T18:32:53.112Z,101181.00
2023-05-12T18:35:20.625Z,101178.00
2023-05-12T18:37:48.051Z,101188.00
2023-05-12T18:40:14.974Z,101187.00
2023-05-12T18:42:41.865Z,101191.00
2023-05-12T18:45:09.466Z,101197.00
2023-05-12T18:47:36.388Z,101202.00
2023-05-12T18:50:04.255Z,101204.00
2023-05-12T18:52:31.306Z,101197.00
2023-05-12T18:54:58.200Z,101205.00
2023-05-12T18:57:25.139Z,101212.00
2023-05-12T18:59:52.025Z,101216.00
2023-05-12T19:02:18.872Z,101209.00
2023-05-12T19:04:45.757Z,101216.00
2023-05-12T19:07:15.333Z,101221.00
2023-05-12T19:09:43.337Z,101222.00
2023-05-12T19:12:11.598Z,101202.00
2023-05-12T19:14:43.043Z,101218.00
2023-05-12T19:17:10.824Z,101215.00
2023-05-12T19:19:38.357Z,101199.00
2023-05-12T19:22:05.428Z,101223.00
2023-05-12T19:24:32.366Z,101231.00
2023-05-12T19:26:59.521Z,101227.00
2023-05-12T19:29:26.368Z,101233.00
2023-05-12T19:31:53.651Z,101232.00
2023-05-12T19:34:21.504Z,101228.00
2023-05-12T19:36:48.434Z,101235.00
2023-05-12T19:39:15.378Z,101237.00
2023-05-12T19:41:42.786Z,101238.00
2023-05-12T19:44:09.630Z,101239.00
2023-05-12T19:46:36.668Z,101240.00
2023-05-12T19:49:04.195Z,101244.00
2023-05-12T19:51:31.947Z,101252.00
2023-05-12T19:53:59.476Z,101242.00
2023-05-12T19:56:27.095Z,101247.00
2023-05-12T19:58:54.313Z,101247.00
2023-05-12T20:01:21.290Z,101175.00
2023-05-12T20:03:48.290Z,101249.00
2023-05-12T20:06:15.385Z,101242.00
2023-05-12T20:08:42.263Z,101244.00
2023-05-12T20:11:09.150Z,101244.00
2023-05-12T20:13:36.080Z,101249.00
2023-05-12T20:16:02.960Z,101209.00
2023-05-12T20:18:30.246Z,101250.00
2023-05-12T20:20:57.561Z,101248.00
2023-05-12T20:23:24.694Z,101244.00
2023-05-12T20:25:53.229Z,101248.00
2023-05-12T20:28:21.338Z,101257.00
2023-05-12T20:30:48.201Z,101241.00
2023-05-12T20:33:15.628Z,101245.00
2023-05-12T20:35:42.499Z,101243.00
2023-05-12T20:38:09.343Z,101246.00
2023-05-12T20:40:36.267Z,101244.00
2023-05-12T20:43:03.101Z,101239.00
2023-05-12T20:45:29.943Z,101234.00
2023-05-12T20:47:57.092Z,101242.00
2023-05-12T20:50:24.381Z,101237.00
2023-05-12T20:52:51.375Z,101241.00
2023-05-12T20:55:18.551Z,101243.00
2023-05-12T20:57:46.818Z,101252.00
2023-05-12T21:00:14.329Z,101250.00
2023-05-12T21:02:41.637Z,101243.00
2023-05-12T21:05:08.898Z,101246.00
2023-05-12T21:07:35.996Z,101247.00
2023-05-12T21:10:03.813Z,101253.00
2023-05-12T21:12:31.738Z,101258.00
2023-05-12T21:14:58.644Z,101253.00
2023-05-12T21:17:25.553Z,101255.00
2023-05-12T21:19:52.406Z,101264.00
2023-05-12T21:22:19.293Z,101261.00
2023-05-12T21:24:46.193Z,101268.00
2023-05-12T21:27:13.201Z,101261.00
2023-05-12T21:29:40.689Z,101266.00
2023-05-12T21:32:07.952Z,101264.00
2023-05-12T21:34:36.004Z,101225.00
2023-05-12T21:37:03.026Z,101265.00
2023-05-12T21:39:29.941Z,101264.00
2023-05-12T21:41:56.774Z,101259.00
2023-05-12T21:44:23.670Z,101260.00
2023-05-12T21:46:50.530Z,101269.00
2023-05-12T21:49:17.375Z,101266.00
2023-05-12T21:51:45.437Z,101279.00
2023-05-12T21:54:12.392Z,101270.00
2023-05-12T21:56:40.580Z,101269.00
2023-05-12T21:59:07.492Z,101271.00
2023-05-12T22:01:34.384Z,101271.00
2023-05-12T22:04:01.344Z,101247.00
2023-05-12T22:06:29.392Z,101273.00
2023-05-12T22:08:56.275Z,101273.00
2023-05-12T22:11:24.194Z,101276.00
2023-05-12T22:13:51.332Z,101273.00
2023-05-12T22:16:21.779Z,101266.00
2023-05-12T22:18:52.771Z,101275.00
2023-05-12T22:21:19.668Z,101277.00
2023-05-12T22:23:46.541Z,101282.00
2023-05-12T22:26:13.858Z,101280.00
2023-05-12T22:28:40.693Z,101279.00
2023-05-12T22:31:08.967Z,101271.00
2023-05-12T22:33:35.936Z,101271.00
2023-05-12T22:36:03.150Z,101272.00
2023-05-12T22:38:30.269Z,101274.00
2023-05-12T22:40:57.122Z,101276.00
2023-05-12T22:43:24.067Z,101279.00
2023-05-12T22:45:55.866Z,101282.00
2023-05-12T22:48:22.916Z,101279.00
2023-05-12T22:50:53.182Z,101275.00
2023-05-12T22:53:20.268Z,101281.00
2023-05-12T22:55:47.234Z,101280.00
2023-05-12T22:58:14.327Z,101282.00
2023-05-12T23:00:41.196Z,101283.00
2023-05-12T23:03:08.127Z,101270.00
2023-05-12T23:05:34.926Z,101278.00
2023-05-12T23:08:02.983Z,101282.00
2023-05-12T23:10:29.934Z,101282.00
2023-05-12T23:12:56.884Z,101273.00
2023-05-12T23:15:23.998Z,101275.00
2023-05-12T23:17:50.834Z,101276.00
2023-05-12T23:20:17.790Z,101281.00
2023-05-12T23:22:44.894Z,101281.00
2023-05-12T23:25:11.769Z,101274.00
2023-05-12T23:27:38.733Z,101289.00
2023-05-12T23:30:06.728Z,101281.00
2023-05-12T23:32:33.764Z,101283.00
2023-05-12T23:35:00.721Z,101279.00
2023-05-12T23:37:27.552Z,101284.00
2023-05-12T23:39:54.454Z,101285.00
2023-05-12T23:42:21.566Z,101284.00
2023-05-12T23:44:48.416Z,101280.00
2023-05-12T23:47:15.250Z,101286.00
2023-05-12T23:49:42.148Z,101281.00
2023-05-12T23:52:09.025Z,101278.00
2023-05-12T23:54:35.849Z,101279.00
2023-05-12T23:57:03.168Z,101289.00
2023-05-12T23:59:32.969Z,101275.00
